createdAt,value
2018-06-22T05:26:02.182Z,3.80
2018-06-22T05:27:01.204Z,5.00
2018-06-22T05:28:54.862Z,5.50
2018-06-22T05:29:54.859Z,7.40
2018-06-22T05:31:48.697Z,4.30
2018-06-22T05:32:48.168Z,5.90
2018-06-22T05:34:41.041Z,4.90
2018-06-22T05:35:40.702Z,7.00
2018-06-22T05:37:34.210Z,5.90
2018-06-22T05:38:34.024Z,6.20
2018-06-22T05:40:27.709Z,3.90
2018-06-22T05:41:27.736Z,4.70
2018-06-22T05:43:21.246Z,6.20
2018-06-22T05:44:21.059Z,6.70
2018-06-22T05:46:14.410Z,4.20
2018-06-22T05:47:14.403Z,5.30
2018-06-22T05:49:07.979Z,2.70
2018-06-22T05:50:07.390Z,4.60
2018-06-22T05:52:00.758Z,3.00
2018-06-22T05:53:00.744Z,5.20
2018-06-22T05:54:54.643Z,6.90
2018-06-22T05:57:26.493Z,5.80
2018-06-22T05:58:26.486Z,6.10
2018-06-22T06:00:20.066Z,6.20
2018-06-22T06:01:19.830Z,4.60
2018-06-22T06:03:12.922Z,6.20
2018-06-22T06:04:12.839Z,5.10
2018-06-22T06:06:06.210Z,6.10
2018-06-22T06:07:06.020Z,5.30
2018-06-22T06:08:59.057Z,6.40
2018-06-22T06:09:59.055Z,8.00
2018-06-22T06:11:53.566Z,7.50
2018-06-22T06:12:52.383Z,7.40
2018-06-22T06:14:46.072Z,7.50
2018-06-22T06:15:45.742Z,5.40
2018-06-22T06:17:39.630Z,5.20
2018-06-22T06:18:39.095Z,4.70
2018-06-22T06:20:32.793Z,4.30
2018-06-22T06:21:32.496Z,4.80
2018-06-22T06:23:26.104Z,14.70
2018-06-22T06:24:26.126Z,9.20
2018-06-22T06:26:19.483Z,6.90
2018-06-22T06:27:19.197Z,7.50
2018-06-22T06:29:12.700Z,7.00
2018-06-22T06:30:12.832Z,6.50
2018-06-22T06:32:05.853Z,5.10
2018-06-22T06:33:05.847Z,4.60
2018-06-22T06:34:59.800Z,5.10
2018-06-22T06:35:59.225Z,5.90
2018-06-22T06:37:52.579Z,3.90
2018-06-22T06:38:52.880Z,6.40
2018-06-22T06:40:46.187Z,4.40
2018-06-22T06:41:46.256Z,7.10
2018-06-22T06:43:39.593Z,9.80
2018-06-22T06:44:39.590Z,8.90
2018-06-22T06:46:33.175Z,4.80
2018-06-22T06:47:32.938Z,4.30
2018-06-22T06:49:25.955Z,3.60
2018-06-22T06:50:26.300Z,4.60
2018-06-22T06:52:19.517Z,7.30
2018-06-22T06:53:19.670Z,7.70
2018-06-22T06:55:12.684Z,5.30
2018-06-22T06:56:12.698Z,4.50
2018-06-22T06:58:06.213Z,12.90
2018-06-22T06:59:06.019Z,9.30
2018-06-22T07:02:31.442Z,6.70
2018-06-22T07:03:31.425Z,9.50
2018-06-22T07:05:24.880Z,9.40
2018-06-22T07:06:24.294Z,7.80
2018-06-22T07:08:18.008Z,8.00
2018-06-22T07:09:17.972Z,8.80
2018-06-22T07:11:11.578Z,8.90
2018-06-22T07:12:10.990Z,8.40
2018-06-22T07:14:04.360Z,8.50
2018-06-22T07:15:04.666Z,9.90
2018-06-22T07:16:57.907Z,7.60
2018-06-22T07:17:57.703Z,5.70
2018-06-22T07:19:51.054Z,9.70
2018-06-22T07:20:51.379Z,8.40
2018-06-22T07:22:44.937Z,8.50
2018-06-22T07:23:44.407Z,8.40
2018-06-22T07:25:38.084Z,11.00
2018-06-22T07:26:37.715Z,10.40
2018-06-22T07:28:31.332Z,8.10
2018-06-22T07:29:31.090Z,10.00
2018-06-22T07:31:24.421Z,10.30
2018-06-22T07:32:24.752Z,7.90
2018-06-22T07:34:18.309Z,7.90
2018-06-22T07:35:18.107Z,8.80
2018-06-22T07:37:12.050Z,8.60
2018-06-22T07:39:43.417Z,9.90
2018-06-22T07:40:43.523Z,11.30
2018-06-22T07:42:36.877Z,11.10
2018-06-22T07:43:36.536Z,7.80
2018-06-22T07:45:30.106Z,5.40
2018-06-22T07:46:29.887Z,5.40
2018-06-22T07:48:24.172Z,6.50
2018-06-22T07:49:23.245Z,7.80
2018-06-22T07:51:16.818Z,4.40
2018-06-22T07:52:16.580Z,5.90
2018-06-22T07:54:09.455Z,6.20
2018-06-22T07:55:09.453Z,6.00
2018-06-22T07:57:03.315Z,6.80
2018-06-22T07:58:02.793Z,5.50
2018-06-22T07:59:56.488Z,9.80
2018-06-22T08:00:56.149Z,6.90
2018-06-22T08:02:50.035Z,5.40
2018-06-22T08:03:49.841Z,6.10
2018-06-22T08:05:43.200Z,7.60
2018-06-22T08:06:43.176Z,7.80
2018-06-22T08:08:36.745Z,6.10
2018-06-22T08:09:36.189Z,5.40
2018-06-22T08:11:29.413Z,6.80
2018-06-22T08:12:29.415Z,6.50
2018-06-22T08:14:23.224Z,4.20
2018-06-22T08:15:22.734Z,5.70
2018-06-22T08:17:15.819Z,3.80
2018-06-22T08:18:16.098Z,4.50
2018-06-22T08:20:09.707Z,4.80
2018-06-22T08:21:09.462Z,6.90
2018-06-22T08:23:02.816Z,5.20
2018-06-22T08:24:02.463Z,4.20
2018-06-22T08:25:56.641Z,5.40
2018-06-22T08:26:56.159Z,5.40
2018-06-22T08:28:49.493Z,7.00
2018-06-22T08:29:49.176Z,6.00
2018-06-22T08:31:42.743Z,10.10
2018-06-22T08:32:42.502Z,8.20
2018-06-22T08:34:36.212Z,6.40
2018-06-22T08:35:36.208Z,8.90
2018-06-22T08:37:29.469Z,7.80
2018-06-22T08:38:29.575Z,7.20
2018-06-22T08:40:22.928Z,5.60
2018-06-22T08:41:22.904Z,5.40
2018-06-22T08:43:16.256Z,5.50
2018-06-22T08:44:16.277Z,5.60
2018-06-22T08:46:09.879Z,8.00
2018-06-22T08:47:09.604Z,6.40
2018-06-22T08:49:02.874Z,7.00
2018-06-22T08:50:02.641Z,5.70
2018-06-22T08:51:56.312Z,4.30
2018-06-22T08:52:55.973Z,8.60
2018-06-22T08:54:50.141Z,6.60
2018-06-22T08:55:49.676Z,6.70
2018-06-22T08:57:43.016Z,5.30
2018-06-22T08:58:42.662Z,5.10
2018-06-22T09:00:36.226Z,6.20
2018-06-22T09:01:36.029Z,6.60
2018-06-22T09:03:29.705Z,7.80
2018-06-22T09:04:29.706Z,4.60
2018-06-22T09:06:22.930Z,5.30
2018-06-22T09:07:23.037Z,6.90
2018-06-22T09:09:16.085Z,5.70
2018-06-22T09:10:16.413Z,4.90
2018-06-22T09:12:09.684Z,5.60
2018-06-22T09:13:09.783Z,5.10
2018-06-22T09:15:02.790Z,4.40
2018-06-22T09:16:02.774Z,4.00
2018-06-22T09:17:56.353Z,8.50
2018-06-22T09:18:56.474Z,6.50
2018-06-22T09:20:49.812Z,5.60
2018-06-22T09:21:49.541Z,5.90
2018-06-22T09:23:43.944Z,8.00
2018-06-22T09:24:42.821Z,7.80
2018-06-22T09:26:36.503Z,5.30
2018-06-22T09:27:36.179Z,6.40
2018-06-22T09:29:29.745Z,7.60
2018-06-22T09:30:29.531Z,6.20
2018-06-22T09:32:22.880Z,4.50
2018-06-22T09:33:23.212Z,5.20
2018-06-22T09:35:16.768Z,6.60
2018-06-22T09:36:16.539Z,4.40
2018-06-22T09:38:09.905Z,6.60
2018-06-22T09:39:09.556Z,5.60
2018-06-22T09:41:03.462Z,5.70
2018-06-22T09:42:03.239Z,4.90
2018-06-22T09:43:56.595Z,6.00
2018-06-22T09:44:56.310Z,5.30
2018-06-22T09:46:49.808Z,5.40
2018-06-22T09:47:49.943Z,8.10
2018-06-22T09:49:42.979Z,6.30
2018-06-22T09:50:42.964Z,5.00
2018-06-22T09:52:36.553Z,6.00
2018-06-22T09:53:36.328Z,4.20
2018-06-22T09:55:29.661Z,4.80
2018-06-22T09:56:29.980Z,4.80
2018-06-22T09:58:23.192Z,5.10
2018-06-22T09:59:23.328Z,6.00
2018-06-22T10:01:16.714Z,5.00
2018-06-22T10:04:20.575Z,5.30
2018-06-22T10:05:10.263Z,7.60
2018-06-22T10:07:03.619Z,6.00
2018-06-22T10:08:03.621Z,4.50
2018-06-22T10:09:56.146Z,6.50
2018-06-22T10:10:55.952Z,6.40
2018-06-22T10:12:49.330Z,6.20
2018-06-22T10:13:49.298Z,6.30
2018-06-22T10:15:42.872Z,5.20
2018-06-22T10:16:42.644Z,6.20
2018-06-22T10:18:36.005Z,5.20
2018-06-22T10:19:36.000Z,5.90
2018-06-22T10:21:29.592Z,5.00
2018-06-22T10:22:29.330Z,5.30
2018-06-22T10:24:22.713Z,6.40
2018-06-22T10:25:22.693Z,8.10
2018-06-22T10:27:16.331Z,5.60
2018-06-22T10:28:16.061Z,4.50
2018-06-22T10:30:09.392Z,6.70
2018-06-22T10:31:09.392Z,4.40
2018-06-22T10:33:02.976Z,7.60
2018-06-22T10:34:02.811Z,5.80
2018-06-22T10:35:56.666Z,5.10
2018-06-22T10:36:56.080Z,5.10
2018-06-22T10:38:49.619Z,5.00
2018-06-22T10:39:49.427Z,4.80
2018-06-22T10:41:42.790Z,4.90
2018-06-22T10:42:42.797Z,5.20
2018-06-22T10:44:36.324Z,5.40
2018-06-22T10:45:36.146Z,4.60
2018-06-22T10:47:29.470Z,5.20
2018-06-22T10:48:29.460Z,4.80
2018-06-22T10:50:23.063Z,4.70
2018-06-22T10:51:22.811Z,4.80
2018-06-22T10:53:16.169Z,5.00
2018-06-22T10:54:16.187Z,6.70
2018-06-22T10:56:09.763Z,8.20
2018-06-22T10:57:09.533Z,5.90
2018-06-22T10:59:02.930Z,4.90
2018-06-22T11:00:03.006Z,5.70
2018-06-22T11:01:56.454Z,4.80
2018-06-22T11:02:56.228Z,4.70
2018-06-22T11:04:49.569Z,6.20
2018-06-22T11:05:49.619Z,6.20
2018-06-22T11:07:43.158Z,5.00
2018-06-22T11:08:42.936Z,4.40
2018-06-22T11:10:36.872Z,6.60
2018-06-22T11:11:36.273Z,4.50
2018-06-22T11:13:29.864Z,5.00
2018-06-22T11:14:29.628Z,5.10
2018-06-22T11:16:22.986Z,4.80
2018-06-22T11:17:23.011Z,5.10
2018-06-22T11:19:16.488Z,5.20
2018-06-22T11:20:16.308Z,6.20
2018-06-22T11:22:09.688Z,6.10
2018-06-22T11:23:09.688Z,5.80
2018-06-22T11:25:03.236Z,5.60
2018-06-22T11:26:03.021Z,5.20
2018-06-22T11:27:56.385Z,5.60
2018-06-22T11:28:56.361Z,4.70
2018-06-22T11:30:49.991Z,4.90
2018-06-22T11:31:49.707Z,5.50
2018-06-22T11:33:43.069Z,4.90
2018-06-22T11:34:43.077Z,5.80
2018-06-22T11:36:36.667Z,5.10
2018-06-22T11:37:36.418Z,4.80
2018-06-22T11:39:30.369Z,5.20
2018-06-22T11:40:29.770Z,6.30
2018-06-22T11:42:23.905Z,5.80
2018-06-22T11:43:23.129Z,4.80
2018-06-22T11:45:17.077Z,5.90
2018-06-22T11:46:16.478Z,5.10
2018-06-22T11:48:09.580Z,4.90
2018-06-22T11:49:09.348Z,4.60
2018-06-22T11:51:02.725Z,4.40
2018-06-22T11:52:02.679Z,4.80
2018-06-22T11:53:56.275Z,4.80
2018-06-22T11:54:56.031Z,6.00
2018-06-22T11:56:49.376Z,6.10
2018-06-22T11:57:49.394Z,6.10
2018-06-22T11:59:42.949Z,5.10
2018-06-22T12:00:42.734Z,5.00
2018-06-22T12:02:36.103Z,4.60
2018-06-22T12:03:36.068Z,4.70
2018-06-22T12:05:29.648Z,4.90
2018-06-22T12:06:29.416Z,4.70
2018-06-22T12:08:22.795Z,5.20
2018-06-22T12:09:22.791Z,4.90
2018-06-22T12:11:16.951Z,4.70
2018-06-22T12:12:16.138Z,4.70
2018-06-22T12:14:09.459Z,4.90
2018-06-22T12:15:09.471Z,5.40
2018-06-22T12:17:03.053Z,4.60
2018-06-22T12:18:02.817Z,4.90
2018-06-22T12:19:56.157Z,4.50
2018-06-22T12:20:56.166Z,4.50
2018-06-22T12:22:49.683Z,5.00
2018-06-22T12:23:49.547Z,4.90
2018-06-22T12:25:42.376Z,5.70
2018-06-22T12:26:42.382Z,5.50
2018-06-22T12:28:36.489Z,4.80
2018-06-22T12:29:35.722Z,5.10
2018-06-22T12:31:29.088Z,5.40
2018-06-22T12:32:29.084Z,4.80
2018-06-22T12:34:22.655Z,4.90
2018-06-22T12:35:22.435Z,4.90
2018-06-22T12:37:15.788Z,4.70
2018-06-22T12:38:15.774Z,4.80
2018-06-22T12:40:09.304Z,4.30
2018-06-22T12:41:09.112Z,4.10
2018-06-22T12:43:02.476Z,5.10
2018-06-22T12:44:02.485Z,4.40
2018-06-22T12:45:56.022Z,4.70
2018-06-22T12:46:55.812Z,4.50
2018-06-22T12:48:49.207Z,4.50
2018-06-22T12:49:49.177Z,4.50
2018-06-22T12:51:42.750Z,4.80
2018-06-22T12:52:42.530Z,4.50
2018-06-22T12:54:36.466Z,4.70
2018-06-22T12:55:35.846Z,6.10
2018-06-22T12:57:29.497Z,4.90
2018-06-22T12:58:29.191Z,4.10
2018-06-22T13:00:22.641Z,4.80
2018-06-22T13:01:22.569Z,4.50
2018-06-22T13:03:16.161Z,4.90
2018-06-22T13:04:15.898Z,4.80
2018-06-22T13:06:09.247Z,5.20
2018-06-22T13:07:09.238Z,5.50
2018-06-22T13:09:02.793Z,5.50
2018-06-22T13:10:02.601Z,6.00
2018-06-22T13:11:55.974Z,4.90
2018-06-22T13:12:55.951Z,4.90
2018-06-22T13:14:50.125Z,4.60
2018-06-22T13:15:49.304Z,4.80
2018-06-22T13:17:42.660Z,5.60
2018-06-22T13:18:42.634Z,4.30
2018-06-22T13:20:36.230Z,4.50
2018-06-22T13:21:35.992Z,4.40
2018-06-22T13:23:29.346Z,4.50
2018-06-22T13:24:29.342Z,5.00
2018-06-22T13:26:22.856Z,4.40
2018-06-22T13:27:22.671Z,4.30
2018-06-22T13:29:16.061Z,4.60
2018-06-22T13:30:16.044Z,4.80
2018-06-22T13:32:09.603Z,4.70
2018-06-22T13:33:09.387Z,4.30
2018-06-22T13:35:03.329Z,5.00
2018-06-22T13:36:02.741Z,4.20
2018-06-22T13:37:56.295Z,4.30
2018-06-22T13:38:56.066Z,4.50
2018-06-22T13:40:49.432Z,4.00
2018-06-22T13:41:49.427Z,4.50
2018-06-22T13:43:43.601Z,4.90
2018-06-22T13:44:42.759Z,4.60
2018-06-22T13:46:36.136Z,4.40
2018-06-22T13:47:36.126Z,4.20
2018-06-22T13:49:29.715Z,4.40
2018-06-22T13:50:29.450Z,4.10
2018-06-22T13:52:22.829Z,4.40
2018-06-22T13:53:22.820Z,4.00
2018-06-22T13:55:16.451Z,5.10
2018-06-22T13:56:16.147Z,4.50
2018-06-22T13:58:09.506Z,4.70
2018-06-22T13:59:09.497Z,4.40
2018-06-22T14:01:03.057Z,4.10
2018-06-22T14:02:02.838Z,4.60
2018-06-22T14:03:56.239Z,3.90
2018-06-22T14:04:56.217Z,4.30
2018-06-22T14:06:49.786Z,4.80
2018-06-22T14:07:49.566Z,4.60
2018-06-22T14:09:42.929Z,4.30
2018-06-22T14:10:42.888Z,4.30
2018-06-22T14:12:37.091Z,4.50
2018-06-22T14:13:36.258Z,4.10
2018-06-22T14:15:29.634Z,4.60
2018-06-22T14:16:29.594Z,4.90
2018-06-22T14:18:23.780Z,4.70
2018-06-22T14:19:22.940Z,5.00
2018-06-22T14:21:16.297Z,6.50
2018-06-22T14:22:16.306Z,5.30
2018-06-22T14:24:09.892Z,4.50
2018-06-22T14:25:09.677Z,4.90
2018-06-22T14:27:03.009Z,4.90
2018-06-22T14:28:02.994Z,4.70
2018-06-22T14:29:57.152Z,5.00
2018-06-22T14:30:56.374Z,7.10
2018-06-22T14:32:49.696Z,4.50
2018-06-22T14:33:49.713Z,4.80
2018-06-22T14:35:43.226Z,4.70
2018-06-22T14:36:43.087Z,4.90
2018-06-22T14:38:36.410Z,4.80
2018-06-22T14:39:36.379Z,5.00
2018-06-22T14:41:29.506Z,4.50
2018-06-22T14:42:29.266Z,4.30
2018-06-22T14:44:22.633Z,5.60
2018-06-22T14:45:22.603Z,5.10
2018-06-22T14:47:15.691Z,5.00
2018-06-22T14:48:15.473Z,4.50
2018-06-22T14:50:08.813Z,4.90
2018-06-22T14:51:08.827Z,5.30
2018-06-22T14:53:02.358Z,4.30
2018-06-22T14:54:02.172Z,4.60
2018-06-22T14:55:55.510Z,4.90
2018-06-22T14:56:55.513Z,4.30
2018-06-22T14:58:49.061Z,4.80
2018-06-22T14:59:48.848Z,4.20
2018-06-22T15:01:42.236Z,4.70
2018-06-22T15:02:42.207Z,5.40
2018-06-22T15:04:35.766Z,4.50
2018-06-22T15:05:35.565Z,4.80
2018-06-22T15:07:28.906Z,4.80
2018-06-22T15:08:28.907Z,5.00
2018-06-22T15:10:22.459Z,4.90
2018-06-22T15:11:22.266Z,5.50
2018-06-22T15:13:15.608Z,5.10
2018-06-22T15:14:15.581Z,5.30
2018-06-22T15:16:09.180Z,6.40
2018-06-22T15:17:08.929Z,8.90
2018-06-22T15:19:02.897Z,6.00
2018-06-22T15:20:02.279Z,5.60
2018-06-22T15:21:55.833Z,5.00
2018-06-22T15:22:55.645Z,4.90
2018-06-22T15:24:49.002Z,5.00
2018-06-22T15:25:48.984Z,4.80
2018-06-22T15:27:42.563Z,4.80
2018-06-22T15:28:42.332Z,4.70
2018-06-22T15:30:35.701Z,4.90
2018-06-22T15:31:35.457Z,5.60
2018-06-22T15:33:29.041Z,5.80
2018-06-22T15:34:28.826Z,5.10
2018-06-22T15:36:21.823Z,4.60
2018-06-22T15:37:22.142Z,4.80
2018-06-22T15:39:15.984Z,4.30
2018-06-22T15:40:15.203Z,4.30
2018-06-22T15:42:08.851Z,4.70
2018-06-22T15:43:08.533Z,5.20
2018-06-22T15:45:02.524Z,4.80
2018-06-22T15:46:02.196Z,4.90
2018-06-22T15:47:55.245Z,4.20
2018-06-22T15:48:55.225Z,4.60
2018-06-22T15:50:48.780Z,4.50
2018-06-22T15:51:48.572Z,4.60
2018-06-22T15:53:41.440Z,4.50
2018-06-22T15:54:41.775Z,4.20
2018-06-22T15:56:35.123Z,4.60
2018-06-22T15:57:34.789Z,4.90
2018-06-22T15:59:28.457Z,4.40
2018-06-22T16:00:28.129Z,4.70
2018-06-22T16:02:22.041Z,5.50
2018-06-22T16:03:21.482Z,4.60
2018-06-22T16:05:15.147Z,4.90
2018-06-22T16:06:15.139Z,4.50
2018-06-22T16:08:08.397Z,4.80
2018-06-22T16:09:08.511Z,4.70
2018-06-22T16:11:01.921Z,4.30
2018-06-22T16:12:01.512Z,4.90
2018-06-22T16:13:55.366Z,4.60
2018-06-22T16:14:55.183Z,5.00
2018-06-22T16:16:48.204Z,4.20
2018-06-22T16:17:48.186Z,4.30
2018-06-22T16:19:42.116Z,5.50
2018-06-22T16:20:41.874Z,5.20
2018-06-22T16:22:34.910Z,4.80
2018-06-22T16:23:34.917Z,4.90
2018-06-22T16:25:28.444Z,4.60
2018-06-22T16:26:28.261Z,4.80
2018-06-22T16:28:22.516Z,4.50
2018-06-22T16:29:21.600Z,4.60
2018-06-22T16:31:15.188Z,5.20
2018-06-22T16:32:15.346Z,5.50
2018-06-22T16:34:08.616Z,5.10
2018-06-22T16:35:08.627Z,5.50
2018-06-22T16:37:01.896Z,5.60
2018-06-22T16:38:01.629Z,5.00
2018-06-22T16:39:54.975Z,4.80
2018-06-22T16:40:55.320Z,5.30
2018-06-22T16:42:48.558Z,5.00
2018-06-22T16:43:48.350Z,5.00
2018-06-22T16:45:41.688Z,5.60
2018-06-22T16:46:41.657Z,5.40
2018-06-22T16:48:35.578Z,5.00
2018-06-22T16:49:35.362Z,4.90
2018-06-22T16:51:28.977Z,5.30
2018-06-22T16:52:28.367Z,5.20
2018-06-22T16:54:21.949Z,5.10
2018-06-22T16:55:21.718Z,5.10
2018-06-22T16:57:15.410Z,6.20
2018-06-22T16:58:15.064Z,5.00
2018-06-22T17:00:08.627Z,5.10
2018-06-22T17:01:08.744Z,4.80
2018-06-22T17:03:01.769Z,5.40
2018-06-22T17:04:01.741Z,5.10
2018-06-22T17:05:55.729Z,5.10
2018-06-22T17:06:55.424Z,5.20
2018-06-22T17:08:48.792Z,6.00
2018-06-22T17:09:48.862Z,4.90
2018-06-22T17:11:42.932Z,5.00
2018-06-22T17:12:42.132Z,4.80
2018-06-22T17:14:36.076Z,5.20
2018-06-22T17:15:35.129Z,5.30
2018-06-22T17:17:29.025Z,4.90
2018-06-22T17:18:28.494Z,5.20
2018-06-22T17:20:21.848Z,6.00
2018-06-22T17:21:22.167Z,5.40
2018-06-22T17:23:15.732Z,5.20
2018-06-22T17:24:15.183Z,5.60
2018-06-22T17:26:08.548Z,5.60
2018-06-22T17:27:08.870Z,5.50
2018-06-22T17:29:02.090Z,5.60
2018-06-22T17:30:01.890Z,5.10
2018-06-22T17:31:55.231Z,5.20
2018-06-22T17:32:55.571Z,5.70
2018-06-22T17:34:48.810Z,5.30
2018-06-22T17:35:48.579Z,5.20
2018-06-22T17:37:42.258Z,5.70
2018-06-22T17:38:41.927Z,5.40
2018-06-22T17:40:35.513Z,5.50
2018-06-22T17:41:35.599Z,7.70
2018-06-22T17:43:28.611Z,5.20
2018-06-22T17:44:28.626Z,5.10
2018-06-22T17:46:22.311Z,5.60
2018-06-22T17:47:22.288Z,5.90
2018-06-22T17:49:15.307Z,5.30
2018-06-22T17:50:15.635Z,5.20
2018-06-22T17:52:09.213Z,5.90
2018-06-22T17:53:08.993Z,5.30
2018-06-22T17:55:02.348Z,5.20
2018-06-22T17:56:02.325Z,5.30
2018-06-22T17:57:55.590Z,4.80
2018-06-22T17:58:55.692Z,5.70
2018-06-22T18:00:49.053Z,5.80
2018-06-22T18:01:48.688Z,6.40
2018-06-22T18:03:42.610Z,5.40
2018-06-22T18:04:42.062Z,6.10
2018-06-22T18:06:36.010Z,5.10
2018-06-22T18:07:35.738Z,6.00
2018-06-22T18:09:28.979Z,5.20
2018-06-22T18:10:28.752Z,5.30
2018-06-22T18:12:22.438Z,5.80
2018-06-22T18:13:22.415Z,6.10
2018-06-22T18:15:16.017Z,5.50
2018-06-22T18:16:15.419Z,5.80
2018-06-22T18:18:09.131Z,5.40
2018-06-22T18:19:09.118Z,5.80
2018-06-22T18:21:02.953Z,5.10
2018-06-22T18:22:02.122Z,5.50
2018-06-22T18:23:55.492Z,5.30
2018-06-22T18:24:55.817Z,5.30
2018-06-22T18:26:49.053Z,5.60
2018-06-22T18:27:49.157Z,5.00
2018-06-22T18:29:42.186Z,5.90
2018-06-22T18:30:42.173Z,5.10
2018-06-22T18:32:35.736Z,4.90
2018-06-22T18:33:35.863Z,5.00
2018-06-22T18:35:29.794Z,5.70
2018-06-22T18:36:28.869Z,5.00
2018-06-22T18:38:23.361Z,5.40
2018-06-22T18:39:22.198Z,5.80
2018-06-22T18:41:15.571Z,5.90
2018-06-22T18:42:15.561Z,6.10
2018-06-22T18:44:09.768Z,5.10
2018-06-22T18:45:09.229Z,5.70
2018-06-22T18:47:02.881Z,4.90
2018-06-22T18:48:02.235Z,5.40
2018-06-22T18:49:55.789Z,5.40
2018-06-22T18:50:55.944Z,5.70
2018-06-22T18:52:49.868Z,5.40
2018-06-22T18:53:48.951Z,5.30
2018-06-22T18:55:42.491Z,5.00
2018-06-22T18:56:42.334Z,5.60
2018-06-22T18:58:35.962Z,5.70
2018-06-22T18:59:35.649Z,5.40
2018-06-22T19:01:29.560Z,4.70
2018-06-22T19:02:29.316Z,5.80
2018-06-22T19:04:22.933Z,5.40
2018-06-22T19:05:22.651Z,5.40
2018-06-22T19:07:16.183Z,5.20
2018-06-22T19:08:15.987Z,5.60
2018-06-22T19:10:09.962Z,5.30
2018-06-22T19:11:09.025Z,5.50
2018-06-22T19:13:02.585Z,5.80
2018-06-22T19:14:02.355Z,5.20
2018-06-22T19:15:56.320Z,5.20
2018-06-22T19:16:55.713Z,5.50
2018-06-22T19:18:49.706Z,5.10
2018-06-22T19:19:49.053Z,5.30
2018-06-22T19:21:42.430Z,5.60
2018-06-22T19:22:42.754Z,5.50
2018-06-22T19:24:35.971Z,5.20
2018-06-22T19:25:36.080Z,5.00
2018-06-22T19:27:29.117Z,5.30
2018-06-22T19:28:29.102Z,5.70
2018-06-22T19:30:23.023Z,5.70
2018-06-22T19:31:22.468Z,5.60
2018-06-22T19:33:15.814Z,5.40
2018-06-22T19:34:15.794Z,5.40
2018-06-22T19:36:09.548Z,5.20
2018-06-22T19:37:09.485Z,5.40
2018-06-22T19:39:02.508Z,6.10
2018-06-22T19:40:02.817Z,5.50
2018-06-22T19:41:56.407Z,5.00
2018-06-22T19:42:55.842Z,5.30
2018-06-22T19:44:49.188Z,5.60
2018-06-22T19:45:49.176Z,5.80
2018-06-22T19:47:42.762Z,4.90
2018-06-22T19:48:42.544Z,5.10
2018-06-22T19:50:36.212Z,5.50
2018-06-22T19:51:35.872Z,5.30
2018-06-22T19:53:29.436Z,5.60
2018-06-22T19:54:29.224Z,5.30
2018-06-22T19:56:22.919Z,5.00
2018-06-22T19:57:22.561Z,5.80
2018-06-22T19:59:16.498Z,5.30
2018-06-22T20:00:15.930Z,5.40
2018-06-22T20:02:09.301Z,5.40
2018-06-22T20:03:09.593Z,5.70
2018-06-22T20:05:03.762Z,5.80
2018-06-22T20:06:02.628Z,5.80
2018-06-22T20:07:56.320Z,5.80
2018-06-22T20:08:56.343Z,5.20
2018-06-22T20:10:49.829Z,5.80
2018-06-22T20:11:49.652Z,5.10
2018-06-22T20:13:42.671Z,5.80
2018-06-22T20:14:42.667Z,5.70
2018-06-22T20:16:36.516Z,5.10
2018-06-22T20:17:36.328Z,5.50
2018-06-22T20:19:30.300Z,6.00
2018-06-22T20:20:29.672Z,6.20
2018-06-22T20:22:23.248Z,5.20
2018-06-22T20:23:22.688Z,5.50
2018-06-22T20:25:16.061Z,6.00
2018-06-22T20:26:16.055Z,5.70
2018-06-22T20:28:09.585Z,5.80
2018-06-22T20:29:09.714Z,5.70
2018-06-22T20:31:02.739Z,5.70
2018-06-22T20:32:03.076Z,5.40
2018-06-22T20:33:56.320Z,5.20
2018-06-22T20:34:56.407Z,5.90
2018-06-22T20:36:50.045Z,5.60
2018-06-22T20:37:49.775Z,5.70
2018-06-22T20:39:43.926Z,5.60
2018-06-22T20:40:55.499Z,5.50
2018-06-22T20:42:36.125Z,5.50
2018-06-22T20:43:36.135Z,5.40
2018-06-22T20:45:30.033Z,5.60
2018-06-22T20:46:29.806Z,5.20
2018-06-22T20:48:23.402Z,5.80
2018-06-22T20:49:22.827Z,5.90
2018-06-22T20:51:16.726Z,5.50
2018-06-22T20:52:16.162Z,5.80
2018-06-22T20:54:09.513Z,5.80
2018-06-22T20:55:09.527Z,6.10
2018-06-22T20:57:03.427Z,5.50
2018-06-22T20:58:02.838Z,5.90
2018-06-22T20:59:56.550Z,5.40
2018-06-22T21:00:56.188Z,5.60
2018-06-22T21:02:49.848Z,5.80
2018-06-22T21:03:49.552Z,5.10
2018-06-22T21:05:42.882Z,5.90
2018-06-22T21:06:42.894Z,5.60
2018-06-22T21:08:36.437Z,5.20
2018-06-22T21:09:36.245Z,5.20
2018-06-22T21:11:29.609Z,5.70
2018-06-22T21:12:40.408Z,5.60
2018-06-22T21:14:23.160Z,5.70
2018-06-22T21:15:22.933Z,5.70
2018-06-22T21:17:16.373Z,5.70
2018-06-22T21:18:15.801Z,5.60
2018-06-22T21:20:09.703Z,6.30
2018-06-22T21:21:09.465Z,6.30
2018-06-22T21:23:02.482Z,5.80
2018-06-22T21:24:02.473Z,5.50
2018-06-22T21:25:56.103Z,5.90
2018-06-22T21:26:56.157Z,5.70
2018-06-22T21:28:49.533Z,6.00
2018-06-22T21:29:49.166Z,6.20
2018-06-22T21:31:43.105Z,6.40
2018-06-22T21:32:42.853Z,5.80
2018-06-22T21:34:35.884Z,5.60
2018-06-22T21:35:35.879Z,6.00
2018-06-22T21:37:29.511Z,6.10
2018-06-22T21:38:29.228Z,6.00
2018-06-22T21:40:22.676Z,6.40
2018-06-22T21:41:22.887Z,6.30
2018-06-22T21:43:16.152Z,5.70
2018-06-22T21:44:16.225Z,5.30
2018-06-22T21:46:09.863Z,6.60
2018-06-22T21:47:09.263Z,6.00
2018-06-22T21:49:03.740Z,6.10
2018-06-22T21:50:02.933Z,5.80
2018-06-22T21:51:56.900Z,6.10
2018-06-22T21:52:56.405Z,6.20
2018-06-22T21:55:06.803Z,6.40
2018-06-22T21:55:49.645Z,6.70
2018-06-22T21:57:42.650Z,6.00
2018-06-22T21:58:42.648Z,5.60
2018-06-22T22:00:36.540Z,6.80
2018-06-22T22:01:36.348Z,6.50
2018-06-22T22:03:29.424Z,7.30
2018-06-22T22:04:29.659Z,6.40
2018-06-22T22:06:23.231Z,6.40
2018-06-22T22:07:22.709Z,6.60
2018-06-22T22:09:16.369Z,7.00
2018-06-22T22:10:16.352Z,6.70
2018-06-22T22:12:10.036Z,6.20
2018-06-22T22:13:09.362Z,6.30
2018-06-22T22:15:03.652Z,6.50
2018-06-22T22:16:03.048Z,6.30
2018-06-22T22:17:56.297Z,6.60
2018-06-22T22:18:56.392Z,7.10
2018-06-22T22:20:49.435Z,6.60
2018-06-22T22:21:49.440Z,6.50
2018-06-22T22:23:43.342Z,6.20
2018-06-22T22:24:42.765Z,6.40
2018-06-22T22:26:36.454Z,5.90
2018-06-22T22:27:36.442Z,6.40
2018-06-22T22:29:30.291Z,6.20
2018-06-22T22:30:29.455Z,6.50
2018-06-22T22:32:23.140Z,6.50
2018-06-22T22:33:23.132Z,6.40
2018-06-22T22:35:16.375Z,6.50
2018-06-22T22:36:16.478Z,6.70
2018-06-22T22:38:09.604Z,7.00
2018-06-22T22:39:09.825Z,6.90
2018-06-22T22:41:03.407Z,6.40
2018-06-22T22:42:02.856Z,6.10
2018-06-22T22:43:56.525Z,6.30
2018-06-22T22:44:56.199Z,6.40
2018-06-22T22:46:50.691Z,6.10
2018-06-22T22:47:49.864Z,6.30
2018-06-22T22:49:43.217Z,6.30
2018-06-22T22:50:43.215Z,6.30
2018-06-22T22:52:36.480Z,6.60
2018-06-22T22:53:36.218Z,6.10
2018-06-22T22:55:29.568Z,6.40
2018-06-22T22:56:29.905Z,5.80
2018-06-22T22:58:23.165Z,6.10
2018-06-22T22:59:22.923Z,6.20
2018-06-22T23:01:16.906Z,6.30
2018-06-22T23:02:16.281Z,6.20
2018-06-22T23:04:10.183Z,6.00
2018-06-22T23:05:09.604Z,6.20
2018-06-22T23:07:03.886Z,6.70
2018-06-22T23:08:18.916Z,7.10
2018-06-22T23:09:56.513Z,7.30
2018-06-22T23:10:56.307Z,7.10
2018-06-22T23:12:49.990Z,7.20
2018-06-22T23:13:49.662Z,6.90
2018-06-22T23:15:43.667Z,7.00
2018-06-22T23:16:43.323Z,6.70
2018-06-22T23:18:36.957Z,7.70
2018-06-22T23:19:36.673Z,7.10
2018-06-22T23:21:30.373Z,6.90
2018-06-22T23:22:29.706Z,6.30
2018-06-22T23:24:23.054Z,7.40
2018-06-22T23:25:23.357Z,7.10
2018-06-22T23:27:16.581Z,7.50
2018-06-22T23:28:16.394Z,7.70
2018-06-22T23:30:09.738Z,7.10
2018-06-22T23:31:09.749Z,7.00
2018-06-22T23:33:03.628Z,7.20
2018-06-22T23:34:03.409Z,7.30
2018-06-22T23:35:56.448Z,7.60
2018-06-22T23:36:56.453Z,7.90
2018-06-22T23:38:49.981Z,7.20
2018-06-22T23:39:50.114Z,7.30
2018-06-22T23:41:43.121Z,7.20
2018-06-22T23:42:43.119Z,7.40
2018-06-22T23:44:37.036Z,7.00
2018-06-22T23:45:36.793Z,7.70
2018-06-22T23:47:30.755Z,7.40
2018-06-22T23:48:30.147Z,7.90
2018-06-22T23:50:23.351Z,6.70
2018-06-22T23:51:23.175Z,8.40
2018-06-22T23:53:17.436Z,7.00
2018-06-22T23:54:16.519Z,7.30
2018-06-22T23:56:10.416Z,7.00
2018-06-22T23:57:09.884Z,7.20
2018-06-22T23:59:03.536Z,7.20
